KMDT/MDT METAR and TAF weather

Enter ICAO airport designator
Station Type Date Time Source
KMDT METAR 2022/12/04 04:56 UTC NOAA

KMDT 040456Z 30010KT 10SM SCT043 04/M02 A3022 RMK AO2 SLP234 T00441022 401440044


Station Type Date Time Source
KMDT Decoded METAR 2022/12/04 04:56 UTC NOAA

HARRISBURG INTERNATIONAL AIRPORT, PA, United States (KMDT) 40-12N 076-46W 95M
Dec 03, 2022 - 11:56 PM EST / 2022.12.04 0456 UTC
Wind: from the WNW (300 degrees) at 12 MPH (10 KT):0
Visibility: 10 mile(s):0
Sky conditions: partly cloudy
Temperature: 39.9 F (4.4 C)
Dew Point: 28.0 F (-2.2 C)
Relative Humidity: 62%
Pressure (altimeter): 30.22 in. Hg (1023 hPa)
ob: KMDT 040456Z 30010KT 10SM SCT043 04/M02 A3022 RMK AO2 SLP234 T00441022 401440044
cycle: 5

Station Type Date Time Source
KMDT TAF 2022/12/04 03:15 UTC NOAA

TAF
AMD KMDT 040313Z 0403/0424 29012KT P6SM SCT050
FM040600 31008KT P6SM SKC

Example: see airport list